createdAt,value
2018-04-19T00:04:35.351Z,72.50
2018-04-19T00:09:38.752Z,74.40
2018-04-19T00:14:41.988Z,75.10
2018-04-19T00:19:46.024Z,70.20
2018-04-19T00:24:49.190Z,70.20
2018-04-19T00:29:52.403Z,68.30
2018-04-19T00:34:57.270Z,67.20
2018-04-19T00:40:00.926Z,66.50
2018-04-19T00:45:04.188Z,61.90
2018-04-19T00:50:07.568Z,57.80
2018-04-19T00:55:10.632Z,55.80
2018-04-19T01:00:14.814Z,54.50
2018-04-19T01:05:18.506Z,54.50
2018-04-19T01:10:22.549Z,56.90
2018-04-19T01:15:25.705Z,56.80
2018-04-19T01:20:28.872Z,56.50
2018-04-19T01:25:32.053Z,56.40
2018-04-19T01:30:35.565Z,56.50
2018-04-19T01:35:50.495Z,56.60
2018-04-19T01:40:54.285Z,56.50
2018-04-19T01:45:57.657Z,56.60
2018-04-19T01:51:01.206Z,57.00
2018-04-19T01:56:07.179Z,57.10
2018-04-19T02:01:11.353Z,57.10
2018-04-19T02:06:14.515Z,57.40
2018-04-19T02:11:18.178Z,57.00
2018-04-19T02:16:21.414Z,57.00
2018-04-19T02:21:25.541Z,56.60
2018-04-19T02:26:29.205Z,56.60
2018-04-19T03:05:22.893Z,56.30
2018-04-19T03:10:26.314Z,56.70
2018-04-19T03:15:29.660Z,57.80
2018-04-19T03:20:33.991Z,58.70
2018-04-19T03:25:37.413Z,61.20
2018-04-19T03:30:41.557Z,63.00
2018-04-19T03:35:44.956Z,64.60
2018-04-19T03:40:48.258Z,64.90
2018-04-19T03:45:51.427Z,64.80
2018-04-19T03:50:54.778Z,65.70
2018-04-19T03:55:57.820Z,68.50
2018-04-19T04:01:01.086Z,67.40
2018-04-19T04:06:06.163Z,64.80
2018-04-19T04:11:10.130Z,64.80
2018-04-19T04:16:25.081Z,64.80
2018-04-19T04:21:28.527Z,69.50
2018-04-19T04:26:32.185Z,71.30
2018-04-19T04:31:35.390Z,71.40
2018-04-19T04:36:38.578Z,71.60
2018-04-19T04:41:42.212Z,72.30
2018-04-19T04:46:45.444Z,73.30
2018-04-19T04:51:50.116Z,74.10
2018-04-19T04:56:53.468Z,73.00
2018-04-19T05:01:57.167Z,71.50
2018-04-19T05:07:00.143Z,70.70
2018-04-19T05:12:03.526Z,71.00
2018-04-19T05:17:06.796Z,71.80
2018-04-19T05:22:10.861Z,71.60
2018-04-19T05:27:18.693Z,72.40
2018-04-19T05:32:23.666Z,71.20
2018-04-19T05:37:27.115Z,68.80
2018-04-19T05:47:58.946Z,68.30
2018-04-19T05:53:03.163Z,68.20
2018-04-19T05:58:06.690Z,67.80
2018-04-19T06:03:11.689Z,66.70
2018-04-19T06:08:15.211Z,66.70
2018-04-19T06:13:19.704Z,66.90
2018-04-19T06:18:26.707Z,68.60
2018-04-19T06:23:32.241Z,68.60
2018-04-19T06:28:37.872Z,67.80
2018-04-19T06:33:41.109Z,67.00
2018-04-19T06:38:44.367Z,64.70
2018-04-19T06:43:48.618Z,61.80
2018-04-19T06:48:52.859Z,61.80
2018-04-19T06:53:56.511Z,61.00
2018-04-19T06:59:01.114Z,60.60
2018-04-19T07:04:04.992Z,59.70
2018-04-19T07:09:08.884Z,58.80
2018-04-19T07:14:12.438Z,56.80
2018-04-19T07:19:16.584Z,56.40
2018-04-19T07:24:22.463Z,55.00
2018-04-19T07:29:26.244Z,49.50
2018-04-19T07:34:29.881Z,47.00
2018-04-19T07:39:33.895Z,44.10
2018-04-19T07:44:38.564Z,43.00
2018-04-19T07:49:42.097Z,42.60
2018-04-19T07:54:46.300Z,41.70
2018-04-19T07:59:49.620Z,41.00
2018-04-19T08:04:52.928Z,40.00
2018-04-19T08:09:56.470Z,40.30
2018-04-19T08:14:59.612Z,39.80
2018-04-19T08:20:02.662Z,39.00
2018-04-19T08:25:05.900Z,37.50
2018-04-19T08:30:09.173Z,36.50
2018-04-19T08:35:13.323Z,36.50
2018-04-19T08:40:17.211Z,35.80
2018-04-19T08:45:21.254Z,35.50
2018-04-19T08:50:25.504Z,33.80
2018-04-19T08:55:29.450Z,33.80
2018-04-19T09:00:33.913Z,33.20
2018-04-19T09:05:37.796Z,33.20
2018-04-19T09:10:41.258Z,32.10
2018-04-19T09:15:44.729Z,31.80
2018-04-19T09:20:49.180Z,31.50
2018-04-19T09:25:55.012Z,31.50
2018-04-19T09:31:03.626Z,31.20
2018-04-19T09:36:07.596Z,30.20
2018-04-19T09:41:10.853Z,30.20
2018-04-19T09:46:14.962Z,29.90
2018-04-19T09:51:23.353Z,29.10
2018-04-19T09:56:26.453Z,28.10
2018-04-19T10:01:30.995Z,28.40
2018-04-19T10:06:34.486Z,27.40
2018-04-19T10:11:38.648Z,26.80
2018-04-19T10:16:53.691Z,26.60
2018-04-19T10:27:07.307Z,26.10
2018-04-19T10:32:12.557Z,26.20
2018-04-19T10:37:15.878Z,26.30
2018-04-19T10:42:19.412Z,26.20
2018-04-19T10:47:25.401Z,25.90
2018-04-19T10:52:30.589Z,24.80
2018-04-19T10:57:34.929Z,24.80
2018-04-19T11:02:39.797Z,24.90
2018-04-19T11:07:43.924Z,25.10
2018-04-19T11:12:47.935Z,26.40
2018-04-19T11:17:59.206Z,25.80
2018-04-19T11:23:04.404Z,24.80
2018-04-19T11:28:07.943Z,24.70
2018-04-19T11:33:11.707Z,24.30
2018-04-19T11:38:15.934Z,23.40
2018-04-19T11:43:19.437Z,23.40
2018-04-19T11:48:23.656Z,23.40
2018-04-19T11:53:26.925Z,23.40
2018-04-19T11:58:30.555Z,24.00
2018-04-19T12:03:45.712Z,23.60
2018-04-19T12:08:52.720Z,23.00
2018-04-19T12:14:19.634Z,22.20
2018-04-19T12:19:28.776Z,23.00
2018-04-19T12:24:32.059Z,22.80
2018-04-19T12:29:35.424Z,22.90
2018-04-19T12:34:43.395Z,23.70
2018-04-19T12:39:46.741Z,22.50
2018-04-19T12:44:51.126Z,22.30
2018-04-19T12:49:54.617Z,22.50
2018-04-19T12:54:59.474Z,22.30
2018-04-19T13:00:02.071Z,21.70
2018-04-19T13:05:07.238Z,21.60
2018-04-19T13:10:11.549Z,21.50
2018-04-19T13:15:15.400Z,20.70
2018-04-19T13:20:18.738Z,20.20
2018-04-19T13:25:22.895Z,20.10
2018-04-19T13:30:26.523Z,20.10
2018-04-19T13:35:30.089Z,20.90
2018-04-19T13:40:33.444Z,20.80
2018-04-19T13:45:36.937Z,20.40
2018-04-19T13:50:40.149Z,20.40
2018-04-19T13:55:43.327Z,20.70
2018-04-19T14:00:48.675Z,20.20
2018-04-19T14:05:54.228Z,19.60
2018-04-19T14:10:57.817Z,19.60
2018-04-19T14:16:05.244Z,19.10
2018-04-19T14:21:08.479Z,19.50
2018-04-19T14:26:12.869Z,19.40
2018-04-19T14:31:16.740Z,19.30
2018-04-19T14:36:22.578Z,19.20
2018-04-19T14:41:26.301Z,19.60
2018-04-19T14:46:29.803Z,19.10
2018-04-19T14:51:33.491Z,18.70
2018-04-19T14:56:41.622Z,19.10
2018-04-19T15:01:45.669Z,18.90
2018-04-19T15:06:50.136Z,18.70
2018-04-19T15:11:55.662Z,17.90
2018-04-19T15:17:00.407Z,18.30
2018-04-19T15:27:14.711Z,18.60
2018-04-19T15:32:18.250Z,18.90
2018-04-19T15:37:22.310Z,18.30
2018-04-19T15:42:25.552Z,16.90
2018-04-19T15:47:29.899Z,17.50
2018-04-19T15:52:33.748Z,17.60
2018-04-19T15:57:38.822Z,17.60
2018-04-19T16:02:42.875Z,17.80
2018-04-19T16:07:46.811Z,16.70
2018-04-19T16:12:50.543Z,16.50
2018-04-19T16:17:56.719Z,17.10
2018-04-19T16:23:01.526Z,17.90
2018-04-19T16:28:06.009Z,18.20
2018-04-19T16:33:09.580Z,18.30
2018-04-19T16:38:13.522Z,19.00
2018-04-19T16:43:17.685Z,19.20
2018-04-19T16:48:21.034Z,18.70
2018-04-19T16:53:24.452Z,17.90
2018-04-19T16:58:28.180Z,18.20
2018-04-19T17:03:32.785Z,18.50
2018-04-19T17:08:36.056Z,18.90
2018-04-19T17:13:40.090Z,19.30
2018-04-19T17:18:43.458Z,19.30
2018-04-19T17:23:46.780Z,19.50
2018-04-19T17:28:50.032Z,19.60
2018-04-19T17:33:54.097Z,20.50
2018-04-19T17:38:59.629Z,20.50
2018-04-19T17:44:03.778Z,21.50
2018-04-19T17:49:07.053Z,21.50
2018-04-19T17:54:10.323Z,21.70
2018-04-19T17:59:13.425Z,22.00
2018-04-19T18:04:17.399Z,23.00
2018-04-19T18:09:23.329Z,23.60
2018-04-19T18:14:27.810Z,23.60
2018-04-19T18:19:31.116Z,25.00
2018-04-19T18:24:34.426Z,24.60
2018-04-19T18:29:37.627Z,25.00
2018-04-19T18:34:41.194Z,25.30
2018-04-19T18:39:44.603Z,25.80
2018-04-19T18:44:48.885Z,27.40
2018-04-19T18:49:52.564Z,27.40
2018-04-19T18:54:55.690Z,28.20
2018-04-19T18:59:58.884Z,28.10
2018-04-19T19:05:02.892Z,28.60
2018-04-19T19:10:06.175Z,28.60
2018-04-19T19:15:24.488Z,28.70
2018-04-19T19:20:28.696Z,29.10
2018-04-19T19:25:33.206Z,30.00
2018-04-19T19:30:36.419Z,30.00
2018-04-19T19:35:40.332Z,30.20
2018-04-19T19:40:44.386Z,31.20
2018-04-19T19:45:48.537Z,32.60
2018-04-19T19:50:53.008Z,31.70
2018-04-19T19:55:58.583Z,31.60
2018-04-19T20:01:01.904Z,31.40
2018-04-19T20:06:05.174Z,31.10
2018-04-19T20:11:10.219Z,31.80
2018-04-19T20:16:14.946Z,31.70
2018-04-19T20:21:18.947Z,33.00
2018-04-19T20:26:22.316Z,32.30
2018-04-19T20:31:26.081Z,31.80
2018-04-19T20:42:10.291Z,32.10
2018-04-19T20:47:14.580Z,32.40
2018-04-19T20:52:17.924Z,32.20
2018-04-19T20:57:21.839Z,32.60
2018-04-19T21:02:25.080Z,33.00
2018-04-19T21:07:29.358Z,33.10
2018-04-19T21:12:34.027Z,33.00
2018-04-19T21:17:38.032Z,33.00
2018-04-19T21:22:42.021Z,31.80
2018-04-19T21:27:45.631Z,31.60
2018-04-19T21:32:48.844Z,31.20
2018-04-19T21:37:53.438Z,31.40
2018-04-19T21:42:57.769Z,32.60
2018-04-19T21:48:02.073Z,32.50
2018-04-19T21:53:05.428Z,32.30
2018-04-19T21:58:08.704Z,32.70
2018-04-19T22:03:14.810Z,33.20
2018-04-19T22:08:19.701Z,33.80
2018-04-19T22:13:22.861Z,33.80
2018-04-19T22:18:26.019Z,34.70
2018-04-19T22:23:29.293Z,34.20
2018-04-19T22:28:34.616Z,33.90
2018-04-19T22:33:38.700Z,33.30
2018-04-19T22:38:41.996Z,33.20
2018-04-19T22:43:46.239Z,34.00
2018-04-19T22:54:23.884Z,33.10
2018-04-19T22:59:27.029Z,33.30
2018-04-19T23:04:30.329Z,33.40
2018-04-19T23:09:33.303Z,33.60
2018-04-19T23:14:36.580Z,33.80
2018-04-19T23:19:40.587Z,34.40
2018-04-19T23:24:44.415Z,34.30
2018-04-19T23:29:47.629Z,34.40
2018-04-19T23:34:51.315Z,34.90
2018-04-19T23:39:54.220Z,35.20
2018-04-19T23:44:57.405Z,35.70
2018-04-19T23:50:00.563Z,36.10
2018-04-19T23:55:03.889Z,36.90
